VA60 weather

Flying Horse Farm Balloonport
Unison, Virginia, United States

Public forecast

Using degrees Fahrenheit for public forecast. Weather courtesy of forecast.io.

METAR (pilot weather report)

Closest report is Leesburg Executive Airport, 10.4 nm (19.2 km) E. Retrieved 2019/05/23 12:35 UTC (0 seconds ago):

KJYO 231235Z AUTO 18005KT 10SM OVC095 18/14 A3017 RMK AO2

TAF (pilot weather forecast)

Closest forecast is Washington Dulles International Airport, 16.3 nm (30.2 km) ESE. Retrieved 2019/05/23 12:36 UTC (0 seconds ago):

TAF KIAD 231134Z 2312/2418 18007KT P6SM SCT100 BKN250 FM231500 20010G17KT P6SM SCT050 BKN200 FM231900 23011G19KT 6SM SHRA VCTS BKN050CB FM232200 25010G18KT P6SM BKN050 FM240000 27008KT P6SM SCT060 SCT150 FM240900 30008KT P6SM FEW050 SCT250 FM241300 32012G20KT P6SM FEW250